createdAt,value
2023-03-04T00:02:06.677Z,1.30
2023-03-04T00:04:35.745Z,1.55
2023-03-04T00:07:03.868Z,1.58
2023-03-04T00:09:31.592Z,1.90
2023-03-04T00:11:59.045Z,1.60
2023-03-04T00:14:28.238Z,1.65
2023-03-04T00:16:56.830Z,1.50
2023-03-04T00:19:24.906Z,1.10
2023-03-04T00:21:59.281Z,1.35
2023-03-04T00:24:32.108Z,1.40
2023-03-04T00:27:00.492Z,1.63
2023-03-04T00:29:28.047Z,1.88
2023-03-04T00:31:56.234Z,1.40
2023-03-04T00:34:24.200Z,1.90
2023-03-04T00:36:52.151Z,3.05
2023-03-04T00:39:19.888Z,1.83
2023-03-04T00:41:47.382Z,1.33
2023-03-04T00:44:15.032Z,1.70
2023-03-04T00:46:42.570Z,1.50
2023-03-04T00:49:09.842Z,1.17
2023-03-04T00:51:37.391Z,1.30
2023-03-04T00:54:04.944Z,1.75
2023-03-04T00:56:32.326Z,1.60
2023-03-04T00:58:59.726Z,2.45
2023-03-04T01:01:27.397Z,1.75
2023-03-04T01:03:54.865Z,2.55
2023-03-04T01:06:22.282Z,1.42
2023-03-04T01:08:49.966Z,1.27
2023-03-04T01:11:17.278Z,1.17
2023-03-04T01:13:44.685Z,1.00
2023-03-04T01:16:13.098Z,1.33
2023-03-04T01:18:44.275Z,1.08
2023-03-04T01:21:12.874Z,2.33
2023-03-04T01:23:41.561Z,0.88
2023-03-04T01:26:10.792Z,1.10
2023-03-04T01:28:46.761Z,1.48
2023-03-04T01:31:14.627Z,1.17
2023-03-04T01:33:42.429Z,1.50
2023-03-04T01:36:10.025Z,1.40
2023-03-04T01:38:37.505Z,1.30
2023-03-04T01:41:04.988Z,1.42
2023-03-04T01:43:35.689Z,2.25
2023-03-04T01:46:03.722Z,2.10
2023-03-04T01:48:37.404Z,1.02
2023-03-04T01:51:06.933Z,1.52
2023-03-04T01:53:34.334Z,1.30
2023-03-04T01:56:12.132Z,1.08
2023-03-04T01:58:40.927Z,0.98
2023-03-04T02:01:10.560Z,1.33
2023-03-04T02:03:38.429Z,1.20
2023-03-04T02:06:06.364Z,1.60
2023-03-04T02:08:35.519Z,1.77
2023-03-04T02:11:03.078Z,1.30
2023-03-04T02:13:30.831Z,1.10
2023-03-04T02:15:58.313Z,1.67
2023-03-04T02:18:25.732Z,1.08
2023-03-04T02:21:11.678Z,0.85
2023-03-04T02:24:00.965Z,1.10
2023-03-04T02:26:31.338Z,1.67
2023-03-04T02:29:00.589Z,1.45
2023-03-04T02:31:31.352Z,1.92
2023-03-04T02:34:07.530Z,1.00
2023-03-04T02:36:36.185Z,1.20
2023-03-04T02:39:21.948Z,1.38
2023-03-04T02:41:52.380Z,1.20
2023-03-04T02:44:31.574Z,1.25
2023-03-04T02:46:59.325Z,1.20
2023-03-04T02:49:29.742Z,1.13
2023-03-04T02:52:04.329Z,1.13
2023-03-04T02:54:32.436Z,1.30
2023-03-04T02:57:02.243Z,2.45
2023-03-04T02:59:30.571Z,1.10
2023-03-04T03:01:58.129Z,1.73
2023-03-04T03:04:26.480Z,1.35
2023-03-04T03:06:54.335Z,1.15
2023-03-04T03:09:22.347Z,1.65
2023-03-04T03:11:50.120Z,1.23
2023-03-04T03:14:17.806Z,1.27
2023-03-04T03:16:45.086Z,3.10
2023-03-04T03:19:12.531Z,1.33
2023-03-04T03:21:40.182Z,1.25
2023-03-04T03:24:08.721Z,1.55
2023-03-04T03:26:36.377Z,1.90
2023-03-04T03:29:03.876Z,1.05
2023-03-04T03:31:31.372Z,1.27
2023-03-04T03:33:59.079Z,1.00
2023-03-04T03:36:26.488Z,1.58
2023-03-04T03:38:54.017Z,1.30
2023-03-04T03:41:21.630Z,1.73
2023-03-04T03:43:49.182Z,1.15
2023-03-04T03:46:16.631Z,1.20
2023-03-04T03:48:43.887Z,1.33
2023-03-04T03:51:11.523Z,1.67
2023-03-04T03:53:38.976Z,1.33
2023-03-04T03:56:06.823Z,1.38
2023-03-04T03:58:34.375Z,1.40
2023-03-04T04:01:01.928Z,1.13
2023-03-04T04:03:29.584Z,1.55
2023-03-04T04:05:56.883Z,1.42
2023-03-04T04:08:24.383Z,0.90
2023-03-04T04:10:51.974Z,1.55
2023-03-04T04:13:19.477Z,1.65
2023-03-04T04:15:47.140Z,1.67
2023-03-04T04:18:14.626Z,0.95
2023-03-04T04:20:41.967Z,1.35
2023-03-04T04:23:09.829Z,1.90
2023-03-04T04:25:37.461Z,1.85
2023-03-04T04:28:05.118Z,1.45
2023-03-04T04:30:32.736Z,1.77
2023-03-04T04:33:01.883Z,1.50
2023-03-04T04:35:29.287Z,1.65
2023-03-04T04:37:57.218Z,1.65
2023-03-04T04:40:24.813Z,1.90
2023-03-04T04:42:52.515Z,1.90
2023-03-04T04:45:19.925Z,5.15
2023-03-04T04:47:47.623Z,2.15
2023-03-04T04:50:15.266Z,1.70
2023-03-04T04:52:42.572Z,2.45
2023-03-04T04:55:10.517Z,1.90
2023-03-04T04:57:38.519Z,1.70
2023-03-04T05:00:07.024Z,1.63
2023-03-04T05:02:36.521Z,2.25
2023-03-04T05:05:05.472Z,1.88
2023-03-04T05:07:33.827Z,2.22
2023-03-04T05:10:01.284Z,1.80
2023-03-04T05:12:28.864Z,1.80
2023-03-04T05:14:56.447Z,1.73
2023-03-04T05:17:23.975Z,1.80
2023-03-04T05:19:51.313Z,1.60
2023-03-04T05:22:18.631Z,2.15
2023-03-04T05:24:46.272Z,1.90
2023-03-04T05:27:13.827Z,2.42
2023-03-04T05:29:43.131Z,2.97
2023-03-04T05:32:10.630Z,1.90
2023-03-04T05:34:37.988Z,1.92
2023-03-04T05:37:05.580Z,2.88
2023-03-04T05:39:33.078Z,1.80
2023-03-04T05:42:00.436Z,1.67
2023-03-04T05:44:27.775Z,1.55
2023-03-04T05:46:55.441Z,2.15
2023-03-04T05:49:22.933Z,2.35
2023-03-04T05:51:50.255Z,1.67
2023-03-04T05:54:17.816Z,1.95
2023-03-04T05:56:45.577Z,2.05
2023-03-04T05:59:13.323Z,3.67
2023-03-04T06:01:40.838Z,1.70
2023-03-04T06:04:08.221Z,1.95
2023-03-04T06:06:35.632Z,1.40
2023-03-04T06:09:03.572Z,1.65
2023-03-04T06:11:31.227Z,1.48
2023-03-04T06:13:58.681Z,2.05
2023-03-04T06:16:26.176Z,1.48
2023-03-04T06:18:53.727Z,1.23
2023-03-04T06:21:21.378Z,1.88
2023-03-04T06:23:49.372Z,1.40
2023-03-04T06:26:16.773Z,1.90
2023-03-04T06:28:45.086Z,2.03
2023-03-04T06:31:13.177Z,1.90
2023-03-04T06:33:40.868Z,2.58
2023-03-04T06:36:08.418Z,1.77
2023-03-04T06:38:35.973Z,1.58
2023-03-04T06:41:13.701Z,1.38
2023-03-04T06:43:41.582Z,1.63
2023-03-04T06:46:09.214Z,1.60
2023-03-04T06:48:36.975Z,1.52
2023-03-04T06:51:09.494Z,1.35
2023-03-04T06:53:37.321Z,1.88
2023-03-04T06:56:05.772Z,1.42
2023-03-04T06:58:33.074Z,1.50
2023-03-04T07:01:18.174Z,1.40
2023-03-04T07:03:47.093Z,1.40
2023-03-04T07:06:16.612Z,1.38
2023-03-04T07:08:44.168Z,1.38
2023-03-04T07:11:11.988Z,1.27
2023-03-04T07:13:39.583Z,1.23
2023-03-04T07:16:12.345Z,1.67
2023-03-04T07:18:40.171Z,2.05
2023-03-04T07:21:08.528Z,1.95
2023-03-04T07:23:37.133Z,1.95
2023-03-04T07:26:05.118Z,1.65
2023-03-04T07:28:33.468Z,2.38
2023-03-04T07:31:19.750Z,1.98
2023-03-04T07:33:47.433Z,1.40
2023-03-04T07:36:15.292Z,1.70
2023-03-04T07:38:46.929Z,1.73
2023-03-04T07:41:15.368Z,1.85
2023-03-04T07:43:43.464Z,2.75
2023-03-04T07:46:11.611Z,3.55
2023-03-04T07:48:39.208Z,4.25
2023-03-04T07:51:15.034Z,2.22
2023-03-04T07:53:44.730Z,4.15
2023-03-04T07:56:18.579Z,2.28
2023-03-04T07:58:46.366Z,3.05
2023-03-04T08:01:16.764Z,1.65
2023-03-04T08:03:44.751Z,1.90
2023-03-04T08:06:14.922Z,1.52
2023-03-04T08:08:43.222Z,2.00
2023-03-04T08:11:17.887Z,1.70
2023-03-04T08:13:46.277Z,1.60
2023-03-04T08:16:15.853Z,1.70
2023-03-04T08:18:45.609Z,2.25
2023-03-04T08:21:13.180Z,2.35
2023-03-04T08:23:42.582Z,2.00
2023-03-04T08:26:13.527Z,1.40
2023-03-04T08:28:42.157Z,2.88
2023-03-04T08:31:09.886Z,1.70
2023-03-04T08:33:37.423Z,1.85
2023-03-04T08:36:05.269Z,1.73
2023-03-04T08:38:32.868Z,1.90
2023-03-04T08:41:00.763Z,2.08
2023-03-04T08:43:28.119Z,1.75
2023-03-04T08:45:56.318Z,1.40
2023-03-04T08:48:24.202Z,1.83
2023-03-04T08:50:52.168Z,2.38
2023-03-04T08:53:20.609Z,1.77
2023-03-04T08:55:49.013Z,2.30
2023-03-04T08:58:16.554Z,3.35
2023-03-04T09:00:48.385Z,2.85
2023-03-04T09:03:19.078Z,4.15
2023-03-04T09:05:48.324Z,5.15
2023-03-04T09:08:16.768Z,4.10
2023-03-04T09:10:45.027Z,4.00
2023-03-04T09:13:16.228Z,3.17
2023-03-04T09:15:49.268Z,3.65
2023-03-04T09:18:18.309Z,3.25
2023-03-04T09:20:46.014Z,3.45
2023-03-04T09:23:14.502Z,3.35
2023-03-04T09:25:43.630Z,2.95
2023-03-04T09:28:14.747Z,2.92
2023-03-04T09:33:10.280Z,2.75
2023-03-04T09:35:38.376Z,4.10
2023-03-04T09:38:06.095Z,3.28
2023-03-04T09:40:41.779Z,3.72
2023-03-04T09:43:22.504Z,3.20
2023-03-04T09:46:00.125Z,3.40
2023-03-04T09:48:33.065Z,2.40
2023-03-04T09:51:34.822Z,2.50
2023-03-04T09:54:29.168Z,2.30
2023-03-04T09:57:35.013Z,1.83
2023-03-04T10:00:20.192Z,1.50
2023-03-04T10:03:10.044Z,1.85
2023-03-04T10:06:01.121Z,2.15
2023-03-04T10:09:00.535Z,2.20
2023-03-04T10:11:34.808Z,2.38
2023-03-04T10:14:21.320Z,1.88
2023-03-04T10:17:05.414Z,2.25
2023-03-04T10:19:42.120Z,1.75
2023-03-04T10:22:37.515Z,2.38
2023-03-04T10:25:27.729Z,2.55
2023-03-04T10:27:56.854Z,2.20
2023-03-04T10:30:32.408Z,2.55
2023-03-04T10:33:00.114Z,2.83
2023-03-04T10:35:36.680Z,2.50
2023-03-04T10:38:04.698Z,1.98
2023-03-04T10:40:39.816Z,2.35
2023-03-04T10:43:21.107Z,2.45
2023-03-04T10:48:22.637Z,2.08
2023-03-04T10:50:50.747Z,1.90
2023-03-04T10:53:31.142Z,2.30
2023-03-04T10:55:58.756Z,2.10
2023-03-04T10:58:26.641Z,1.63
2023-03-04T11:01:06.124Z,1.95
2023-03-04T11:03:37.323Z,2.33
2023-03-04T11:06:24.842Z,2.22
2023-03-04T11:08:57.834Z,2.30
2023-03-04T11:11:37.742Z,2.25
2023-03-04T11:14:34.878Z,2.97
2023-03-04T11:17:17.199Z,2.03
2023-03-04T11:20:12.934Z,2.70
2023-03-04T11:22:43.639Z,3.00
2023-03-04T11:25:29.757Z,3.40
2023-03-04T11:28:21.385Z,2.40
2023-03-04T11:30:55.083Z,2.30
2023-03-04T11:33:42.292Z,2.20
2023-03-04T11:36:44.138Z,2.08
2023-03-04T11:41:57.198Z,2.30
2023-03-04T11:44:25.503Z,2.70
2023-03-04T11:47:26.214Z,2.60
2023-03-04T11:50:08.793Z,2.78
2023-03-04T11:52:50.422Z,2.55
2023-03-04T11:55:52.851Z,3.05
2023-03-04T11:58:58.756Z,2.85
2023-03-04T12:01:54.032Z,3.20
2023-03-04T12:04:45.494Z,3.00
2023-03-04T12:07:34.197Z,2.90
2023-03-04T12:10:33.155Z,3.33
2023-03-04T12:13:31.652Z,3.13
2023-03-04T12:16:33.451Z,3.28
2023-03-04T12:19:15.349Z,2.95
2023-03-04T12:21:56.561Z,2.65
2023-03-04T12:24:59.309Z,3.47
2023-03-04T12:27:45.398Z,3.10
2023-03-04T12:30:27.694Z,2.55
2023-03-04T12:33:21.467Z,3.53
2023-03-04T12:35:55.089Z,2.85
2023-03-04T12:38:37.607Z,3.40
2023-03-04T12:41:33.151Z,3.13
2023-03-04T12:44:20.247Z,2.85
2023-03-04T12:47:15.089Z,3.05
2023-03-04T12:50:20.251Z,2.75
2023-03-04T12:53:10.054Z,2.30
2023-03-04T12:55:43.451Z,2.33
2023-03-04T12:58:21.153Z,2.17
2023-03-04T13:01:16.070Z,2.00
2023-03-04T13:04:16.011Z,1.85
2023-03-04T13:07:25.972Z,1.70
2023-03-04T13:10:26.739Z,1.60
2023-03-04T13:12:59.974Z,1.48
2023-03-04T13:15:38.754Z,1.17
2023-03-04T13:18:33.434Z,2.00
2023-03-04T13:21:31.647Z,1.50
2023-03-04T13:24:22.108Z,1.70
2023-03-04T13:26:49.506Z,2.08
2023-03-04T13:29:17.045Z,2.30
2023-03-04T13:32:02.938Z,2.47
2023-03-04T13:34:42.524Z,2.60
2023-03-04T13:37:56.305Z,2.80
2023-03-04T13:40:34.914Z,3.15
2023-03-04T13:43:25.953Z,2.83
2023-03-04T13:48:33.202Z,2.47
2023-03-04T13:51:00.930Z,3.45
2023-03-04T13:53:54.727Z,4.05
2023-03-04T13:56:46.427Z,2.58
2023-03-04T13:59:32.248Z,2.53
2023-03-04T14:02:10.446Z,2.22
2023-03-04T14:04:46.693Z,2.35
2023-03-04T14:07:30.233Z,2.67
2023-03-04T14:10:05.202Z,2.25
2023-03-04T14:12:52.678Z,2.70
2023-03-04T14:15:23.019Z,2.40
2023-03-04T14:17:54.464Z,2.75
2023-03-04T14:20:31.542Z,2.20
2023-03-04T14:23:01.096Z,3.17
2023-03-04T14:25:37.047Z,3.47
2023-03-04T14:28:16.802Z,2.75
2023-03-04T14:30:52.691Z,3.13
2023-03-04T14:33:24.960Z,5.10
2023-03-04T14:36:02.806Z,4.35
2023-03-04T14:38:40.823Z,3.90
2023-03-04T14:41:17.109Z,3.22
2023-03-04T14:44:03.946Z,4.65
2023-03-04T14:47:00.670Z,4.80
2023-03-04T14:49:36.994Z,4.68
2023-03-04T14:52:04.775Z,4.40
2023-03-04T14:54:41.811Z,4.32
2023-03-04T14:57:36.022Z,5.05
2023-03-04T15:00:28.004Z,6.07
2023-03-04T15:02:59.806Z,4.63
2023-03-04T15:05:35.508Z,4.20
2023-03-04T15:08:24.924Z,4.25
2023-03-04T15:10:59.003Z,4.65
2023-03-04T15:13:49.882Z,4.28
2023-03-04T15:16:19.929Z,7.80
2023-03-04T15:18:58.785Z,4.38
2023-03-04T15:21:31.234Z,3.42
2023-03-04T15:23:59.142Z,3.60
2023-03-04T15:26:27.259Z,2.97
2023-03-04T15:28:54.740Z,3.65
2023-03-04T15:31:25.862Z,3.55
2023-03-04T15:33:55.003Z,3.17
2023-03-04T15:36:23.748Z,3.30
2023-03-04T15:38:53.503Z,3.75
2023-03-04T15:41:26.190Z,3.38
2023-03-04T15:43:54.622Z,3.47
2023-03-04T15:46:23.119Z,3.88
2023-03-04T15:48:53.501Z,4.15
2023-03-04T15:51:22.746Z,4.28
2023-03-04T15:53:56.722Z,3.38
2023-03-04T15:56:32.699Z,3.63
2023-03-04T15:59:13.856Z,4.22
2023-03-04T16:01:41.605Z,4.60
2023-03-04T16:04:16.817Z,4.68
2023-03-04T16:06:46.022Z,5.57
2023-03-04T16:09:17.155Z,5.18
2023-03-04T16:14:20.595Z,4.70
2023-03-04T16:16:54.221Z,4.80
2023-03-04T16:19:25.373Z,5.70
2023-03-04T16:24:22.083Z,4.93
2023-03-04T16:26:50.196Z,4.68
2023-03-04T16:29:17.617Z,4.75
2023-03-04T16:31:44.857Z,4.63
2023-03-04T16:34:13.697Z,5.03
2023-03-04T16:36:41.933Z,5.10
2023-03-04T16:39:28.885Z,4.25
2023-03-04T16:41:57.792Z,4.43
2023-03-04T16:44:25.492Z,4.95
2023-03-04T16:46:53.054Z,4.97
2023-03-04T16:49:20.650Z,5.20
2023-03-04T16:51:50.514Z,5.10
2023-03-04T16:54:25.942Z,5.32
2023-03-04T16:56:54.104Z,4.47
2023-03-04T16:59:21.738Z,5.00
2023-03-04T17:01:49.977Z,5.90
2023-03-04T17:04:17.434Z,4.90
2023-03-04T17:06:44.793Z,4.35
2023-03-04T17:09:12.448Z,5.55
2023-03-04T17:11:40.535Z,4.75
2023-03-04T17:14:07.844Z,5.38
2023-03-04T17:16:36.097Z,5.13
2023-03-04T17:19:03.494Z,3.75
2023-03-04T17:21:30.882Z,3.90
2023-03-04T17:23:58.415Z,3.47
2023-03-04T17:26:25.948Z,4.10
2023-03-04T17:28:53.341Z,4.05
2023-03-04T17:31:21.262Z,4.50
2023-03-04T17:33:50.449Z,4.40
2023-03-04T17:36:19.265Z,4.78
2023-03-04T17:38:47.143Z,4.90
2023-03-04T17:41:17.560Z,5.38
2023-03-04T17:43:50.687Z,4.72
2023-03-04T17:46:20.458Z,4.10
2023-03-04T17:48:48.917Z,6.07
2023-03-04T17:51:16.498Z,5.75
2023-03-04T17:53:44.092Z,6.07
2023-03-04T17:56:12.440Z,5.72
2023-03-04T17:58:40.749Z,6.15
2023-03-04T18:01:20.581Z,7.10
2023-03-04T18:03:50.162Z,5.88
2023-03-04T18:06:24.535Z,5.97
2023-03-04T18:08:55.016Z,5.72
2023-03-04T18:11:30.182Z,6.35
2023-03-04T18:14:02.570Z,6.68
2023-03-04T18:16:41.106Z,5.72
2023-03-04T18:19:18.599Z,5.22
2023-03-04T18:21:48.801Z,6.65
2023-03-04T18:24:20.251Z,4.40
2023-03-04T18:29:19.323Z,3.17
2023-03-04T18:31:47.667Z,3.50
2023-03-04T18:34:15.215Z,3.53
2023-03-04T18:36:42.542Z,3.78
2023-03-04T18:39:10.150Z,5.75
2023-03-04T18:41:37.736Z,4.28
2023-03-04T18:44:06.056Z,5.85
2023-03-04T18:46:44.131Z,5.20
2023-03-04T18:49:14.499Z,4.13
2023-03-04T18:51:42.508Z,4.90
2023-03-04T18:54:10.071Z,4.32
2023-03-04T18:56:54.447Z,3.72
2023-03-04T18:59:33.463Z,4.38
2023-03-04T19:02:05.056Z,4.95
2023-03-04T19:04:32.687Z,4.60
2023-03-04T19:07:00.472Z,4.80
2023-03-04T19:09:29.102Z,4.95
2023-03-04T19:11:56.901Z,4.03
2023-03-04T19:14:24.420Z,4.30
2023-03-04T19:16:52.028Z,4.60
2023-03-04T19:19:19.737Z,6.03
2023-03-04T19:21:47.349Z,5.10
2023-03-04T19:24:14.949Z,5.78
2023-03-04T19:26:43.261Z,6.68
2023-03-04T19:29:11.128Z,6.70
2023-03-04T19:31:41.175Z,6.28
2023-03-04T19:34:10.592Z,7.10
2023-03-04T19:36:41.202Z,6.57
2023-03-04T19:39:14.255Z,7.63
2023-03-04T19:41:45.371Z,6.70
2023-03-04T19:44:13.399Z,6.32
2023-03-04T19:46:47.618Z,7.05
2023-03-04T19:51:45.242Z,6.00
2023-03-04T19:54:13.415Z,6.35
2023-03-04T19:56:40.965Z,6.32
2023-03-04T19:59:09.656Z,5.30
2023-03-04T20:01:39.515Z,5.80
2023-03-04T20:04:10.885Z,6.65
2023-03-04T20:06:44.542Z,5.28
2023-03-04T20:09:14.603Z,6.75
2023-03-04T20:11:56.801Z,5.63
2023-03-04T20:14:26.160Z,4.63
2023-03-04T20:16:56.373Z,6.03
2023-03-04T20:19:27.317Z,5.07
2023-03-04T20:21:56.665Z,5.13
2023-03-04T20:24:25.411Z,5.65
2023-03-04T20:26:55.858Z,5.75
2023-03-04T20:29:24.586Z,5.63
2023-03-04T20:31:51.937Z,4.85
2023-03-04T20:34:19.483Z,4.95
2023-03-04T20:36:47.013Z,4.88
2023-03-04T20:39:30.304Z,5.13
2023-03-04T20:41:58.948Z,5.15
2023-03-04T20:44:27.190Z,5.50
2023-03-04T20:46:54.732Z,5.07
2023-03-04T20:49:27.498Z,5.55
2023-03-04T20:52:03.438Z,4.95
2023-03-04T20:54:31.134Z,4.47
2023-03-04T20:56:58.630Z,4.40
2023-03-04T20:59:26.248Z,4.75
2023-03-04T21:01:54.326Z,4.78
2023-03-04T21:04:23.326Z,4.60
2023-03-04T21:06:52.418Z,4.47
2023-03-04T21:09:22.597Z,4.85
2023-03-04T21:11:51.519Z,4.63
2023-03-04T21:14:24.309Z,4.35
2023-03-04T21:16:58.181Z,4.95
2023-03-04T21:19:28.832Z,4.03
2023-03-04T21:21:58.103Z,4.85
2023-03-04T21:24:28.286Z,4.22
2023-03-04T21:26:55.887Z,4.75
2023-03-04T21:29:25.129Z,4.90
2023-03-04T21:32:09.702Z,4.88
2023-03-04T21:34:43.557Z,5.55
2023-03-04T21:37:11.135Z,5.13
2023-03-04T21:39:38.743Z,5.47
2023-03-04T21:42:06.701Z,4.93
2023-03-04T21:44:48.678Z,4.93
2023-03-04T21:47:17.606Z,5.07
2023-03-04T21:49:45.052Z,4.63
2023-03-04T21:52:13.240Z,5.45
2023-03-04T21:54:40.869Z,5.15
2023-03-04T21:57:08.459Z,5.40
2023-03-04T21:59:36.159Z,4.68
2023-03-04T22:02:03.782Z,5.47
2023-03-04T22:04:31.462Z,5.53
2023-03-04T22:06:59.104Z,5.03
2023-03-04T22:09:26.528Z,4.97
2023-03-04T22:11:53.810Z,5.85
2023-03-04T22:14:21.320Z,5.85
2023-03-04T22:16:55.363Z,6.45
2023-03-04T22:19:30.003Z,5.63
2023-03-04T22:21:57.565Z,6.10
2023-03-04T22:24:26.286Z,5.82
2023-03-04T22:26:54.114Z,5.43
2023-03-04T22:29:21.695Z,6.10
2023-03-04T22:31:51.729Z,5.88
2023-03-04T22:34:19.711Z,6.32
2023-03-04T22:36:48.846Z,8.05
2023-03-04T22:39:23.114Z,6.75
2023-03-04T22:41:50.781Z,6.75
2023-03-04T22:44:18.918Z,6.00
2023-03-04T22:46:46.428Z,6.82
2023-03-04T22:49:14.801Z,6.18
2023-03-04T22:51:43.826Z,6.85
2023-03-04T22:54:16.569Z,6.97
2023-03-04T22:56:44.823Z,6.20
2023-03-04T22:59:12.870Z,7.03
2023-03-04T23:01:40.580Z,6.60
2023-03-04T23:04:08.235Z,6.72
2023-03-04T23:06:36.371Z,7.80
2023-03-04T23:09:04.764Z,6.60
2023-03-04T23:11:35.546Z,8.40
2023-03-04T23:14:06.969Z,7.43
2023-03-04T23:16:38.639Z,7.05
2023-03-04T23:19:06.872Z,5.93
2023-03-04T23:21:35.420Z,6.53
2023-03-04T23:24:03.897Z,6.47
2023-03-04T23:26:38.812Z,6.38
2023-03-04T23:29:08.960Z,6.78
2023-03-04T23:31:36.756Z,6.63
2023-03-04T23:34:04.512Z,7.32
2023-03-04T23:36:34.065Z,7.05
2023-03-04T23:39:01.988Z,6.45
2023-03-04T23:41:30.612Z,7.88
2023-03-04T23:43:59.756Z,6.60
2023-03-04T23:46:28.260Z,7.53
2023-03-04T23:48:56.066Z,6.65
2023-03-04T23:51:26.302Z,6.38
2023-03-04T23:53:54.117Z,6.77
2023-03-04T23:56:25.053Z,6.50
2023-03-04T23:58:52.595Z,6.72
